sensor_id;sensor_type;location;lat;lon;timestamp;temperature;humidity
37408;DHT22;24866;50.248;8.252;2023-07-22T00:01:17;12.70;99.90
37408;DHT22;24866;50.248;8.252;2023-07-22T00:03:47;12.70;99.90
37408;DHT22;24866;50.248;8.252;2023-07-22T00:06:18;12.60;99.90
37408;DHT22;24866;50.248;8.252;2023-07-22T00:08:50;12.30;99.90
37408;DHT22;24866;50.248;8.252;2023-07-22T00:11:20;12.30;99.90
37408;DHT22;24866;50.248;8.252;2023-07-22T00:13:49;12.60;99.90
37408;DHT22;24866;50.248;8.252;2023-07-22T00:16:20;12.80;99.90
37408;DHT22;24866;50.248;8.252;2023-07-22T00:18:50;12.90;99.90
37408;DHT22;24866;50.248;8.252;2023-07-22T00:21:21;12.90;99.90
37408;DHT22;24866;50.248;8.252;2023-07-22T00:23:51;13.00;99.90
37408;DHT22;24866;50.248;8.252;2023-07-22T00:26:21;12.90;99.90
37408;DHT22;24866;50.248;8.252;2023-07-22T00:28:50;12.70;99.90
37408;DHT22;24866;50.248;8.252;2023-07-22T00:31:20;12.60;99.90
37408;DHT22;24866;50.248;8.252;2023-07-22T00:33:50;12.70;99.90
37408;DHT22;24866;50.248;8.252;2023-07-22T00:36:21;12.80;99.90
37408;DHT22;24866;50.248;8.252;2023-07-22T00:38:51;12.80;99.90
37408;DHT22;24866;50.248;8.252;2023-07-22T00:41:21;12.70;99.90
37408;DHT22;24866;50.248;8.252;2023-07-22T00:43:51;12.70;99.90
37408;DHT22;24866;50.248;8.252;2023-07-22T00:46:21;12.60;99.90
37408;DHT22;24866;50.248;8.252;2023-07-22T00:48:51;12.20;99.90
37408;DHT22;24866;50.248;8.252;2023-07-22T00:51:22;12.20;99.90
37408;DHT22;24866;50.248;8.252;2023-07-22T00:53:52;12.30;99.90
37408;DHT22;24866;50.248;8.252;2023-07-22T00:56:22;12.20;99.90
37408;DHT22;24866;50.248;8.252;2023-07-22T00:58:52;12.40;99.90
37408;DHT22;24866;50.248;8.252;2023-07-22T01:01:21;12.50;99.90
37408;DHT22;24866;50.248;8.252;2023-07-22T01:03:51;12.60;99.90
37408;DHT22;24866;50.248;8.252;2023-07-22T01:06:23;12.80;99.90
37408;DHT22;24866;50.248;8.252;2023-07-22T01:08:54;12.80;99.90
37408;DHT22;24866;50.248;8.252;2023-07-22T01:11:24;12.50;99.90
37408;DHT22;24866;50.248;8.252;2023-07-22T01:13:54;12.60;99.90
37408;DHT22;24866;50.248;8.252;2023-07-22T01:16:28;12.50;99.90
37408;DHT22;24866;50.248;8.252;2023-07-22T01:18:58;12.30;99.90
37408;DHT22;24866;50.248;8.252;2023-07-22T01:21:29;12.30;99.90
37408;DHT22;24866;50.248;8.252;2023-07-22T01:24:02;12.20;99.90
37408;DHT22;24866;50.248;8.252;2023-07-22T01:26:32;12.10;99.90
37408;DHT22;24866;50.248;8.252;2023-07-22T01:29:03;12.20;99.90
37408;DHT22;24866;50.248;8.252;2023-07-22T01:31:34;12.00;99.90
37408;DHT22;24866;50.248;8.252;2023-07-22T01:34:05;11.60;99.90
37408;DHT22;24866;50.248;8.252;2023-07-22T01:36:34;11.60;99.90
37408;DHT22;24866;50.248;8.252;2023-07-22T01:39:06;11.70;99.90
37408;DHT22;24866;50.248;8.252;2023-07-22T01:41:35;11.70;99.90
37408;DHT22;24866;50.248;8.252;2023-07-22T01:44:05;11.80;99.90
37408;DHT22;24866;50.248;8.252;2023-07-22T01:46:36;11.90;99.90
37408;DHT22;24866;50.248;8.252;2023-07-22T01:49:09;11.70;99.90
37408;DHT22;24866;50.248;8.252;2023-07-22T01:51:39;11.70;99.90
37408;DHT22;24866;50.248;8.252;2023-07-22T01:54:11;11.90;99.90
37408;DHT22;24866;50.248;8.252;2023-07-22T01:56:41;12.20;99.90
37408;DHT22;24866;50.248;8.252;2023-07-22T01:59:10;12.20;99.90
37408;DHT22;24866;50.248;8.252;2023-07-22T02:01:40;11.90;99.90
37408;DHT22;24866;50.248;8.252;2023-07-22T02:04:10;12.00;99.90
37408;DHT22;24866;50.248;8.252;2023-07-22T02:06:40;12.00;99.90
37408;DHT22;24866;50.248;8.252;2023-07-22T02:09:11;11.80;99.90
37408;DHT22;24866;50.248;8.252;2023-07-22T02:11:42;11.70;99.90
37408;DHT22;24866;50.248;8.252;2023-07-22T02:14:11;11.70;99.90
37408;DHT22;24866;50.248;8.252;2023-07-22T02:16:41;11.60;99.90
37408;DHT22;24866;50.248;8.252;2023-07-22T02:19:11;11.50;99.90
37408;DHT22;24866;50.248;8.252;2023-07-22T02:21:41;11.40;99.90
37408;DHT22;24866;50.248;8.252;2023-07-22T02:24:14;11.40;99.90
37408;DHT22;24866;50.248;8.252;2023-07-22T02:26:44;11.60;99.90
37408;DHT22;24866;50.248;8.252;2023-07-22T02:29:14;11.60;99.90
37408;DHT22;24866;50.248;8.252;2023-07-22T02:31:44;11.40;99.90
37408;DHT22;24866;50.248;8.252;2023-07-22T02:34:14;11.50;99.90
37408;DHT22;24866;50.248;8.252;2023-07-22T02:36:45;11.60;99.90
37408;DHT22;24866;50.248;8.252;2023-07-22T02:39:16;11.60;99.90
37408;DHT22;24866;50.248;8.252;2023-07-22T02:41:46;11.50;99.90
37408;DHT22;24866;50.248;8.252;2023-07-22T02:44:16;11.60;99.90
37408;DHT22;24866;50.248;8.252;2023-07-22T02:46:45;11.50;99.90
37408;DHT22;24866;50.248;8.252;2023-07-22T02:49:15;11.70;99.90
37408;DHT22;24866;50.248;8.252;2023-07-22T02:51:45;11.40;99.90
37408;DHT22;24866;50.248;8.252;2023-07-22T02:54:16;11.20;99.90
37408;DHT22;24866;50.248;8.252;2023-07-22T02:56:46;10.80;99.90
37408;DHT22;24866;50.248;8.252;2023-07-22T02:59:16;10.70;99.90
37408;DHT22;24866;50.248;8.252;2023-07-22T03:01:45;10.80;99.90
37408;DHT22;24866;50.248;8.252;2023-07-22T03:04:15;11.00;99.90
37408;DHT22;24866;50.248;8.252;2023-07-22T03:06:45;11.10;99.90
37408;DHT22;24866;50.248;8.252;2023-07-22T03:09:16;11.00;99.90
37408;DHT22;24866;50.248;8.252;2023-07-22T03:11:46;10.50;99.90
37408;DHT22;24866;50.248;8.252;2023-07-22T03:14:15;10.70;99.90
37408;DHT22;24866;50.248;8.252;2023-07-22T03:16:46;11.00;99.90
37408;DHT22;24866;50.248;8.252;2023-07-22T03:19:16;11.10;99.90
37408;DHT22;24866;50.248;8.252;2023-07-22T03:21:45;10.90;99.90
37408;DHT22;24866;50.248;8.252;2023-07-22T03:24:17;10.50;99.90
37408;DHT22;24866;50.248;8.252;2023-07-22T03:26:47;10.50;99.90
37408;DHT22;24866;50.248;8.252;2023-07-22T03:29:17;10.40;99.90
37408;DHT22;24866;50.248;8.252;2023-07-22T03:31:47;10.50;99.90
37408;DHT22;24866;50.248;8.252;2023-07-22T03:34:17;10.30;99.90
37408;DHT22;24866;50.248;8.252;2023-07-22T03:36:48;10.30;99.90
37408;DHT22;24866;50.248;8.252;2023-07-22T03:39:19;10.40;99.90
37408;DHT22;24866;50.248;8.252;2023-07-22T03:41:49;10.60;99.90
37408;DHT22;24866;50.248;8.252;2023-07-22T03:44:19;10.70;99.90
37408;DHT22;24866;50.248;8.252;2023-07-22T03:46:49;10.60;99.90
37408;DHT22;24866;50.248;8.252;2023-07-22T03:49:19;10.60;99.90
37408;DHT22;24866;50.248;8.252;2023-07-22T03:51:49;10.60;99.90
37408;DHT22;24866;50.248;8.252;2023-07-22T03:54:20;10.60;99.90
37408;DHT22;24866;50.248;8.252;2023-07-22T03:56:50;10.50;99.90
37408;DHT22;24866;50.248;8.252;2023-07-22T03:59:19;10.50;99.90
37408;DHT22;24866;50.248;8.252;2023-07-22T04:01:49;10.60;99.90
37408;DHT22;24866;50.248;8.252;2023-07-22T04:04:19;10.40;99.90
37408;DHT22;24866;50.248;8.252;2023-07-22T04:06:49;10.60;99.90
37408;DHT22;24866;50.248;8.252;2023-07-22T04:09:20;10.90;99.90
37408;DHT22;24866;50.248;8.252;2023-07-22T04:11:50;11.00;99.90
37408;DHT22;24866;50.248;8.252;2023-07-22T04:14:19;11.00;99.90
37408;DHT22;24866;50.248;8.252;2023-07-22T04:16:49;11.10;99.90
37408;DHT22;24866;50.248;8.252;2023-07-22T04:19:19;11.30;99.90
37408;DHT22;24866;50.248;8.252;2023-07-22T04:21:49;11.20;99.90
37408;DHT22;24866;50.248;8.252;2023-07-22T04:24:20;11.20;99.90
37408;DHT22;24866;50.248;8.252;2023-07-22T04:26:50;11.10;99.90
37408;DHT22;24866;50.248;8.252;2023-07-22T04:29:20;11.10;99.90
37408;DHT22;24866;50.248;8.252;2023-07-22T04:31:49;10.90;99.90
37408;DHT22;24866;50.248;8.252;2023-07-22T04:34:19;11.10;99.90
37408;DHT22;24866;50.248;8.252;2023-07-22T04:36:49;11.10;99.90
37408;DHT22;24866;50.248;8.252;2023-07-22T04:39:20;11.20;99.90
37408;DHT22;24866;50.248;8.252;2023-07-22T04:41:50;11.20;99.90
37408;DHT22;24866;50.248;8.252;2023-07-22T04:44:20;11.30;99.90
37408;DHT22;24866;50.248;8.252;2023-07-22T04:46:50;11.30;99.90
37408;DHT22;24866;50.248;8.252;2023-07-22T04:49:19;11.30;99.90
37408;DHT22;24866;50.248;8.252;2023-07-22T04:51:50;11.40;99.90
37408;DHT22;24866;50.248;8.252;2023-07-22T04:54:21;11.30;99.90
37408;DHT22;24866;50.248;8.252;2023-07-22T04:56:51;11.30;99.90
37408;DHT22;24866;50.248;8.252;2023-07-22T04:59:21;11.40;99.90
37408;DHT22;24866;50.248;8.252;2023-07-22T05:01:50;11.50;99.90
37408;DHT22;24866;50.248;8.252;2023-07-22T05:04:20;11.40;99.90
37408;DHT22;24866;50.248;8.252;2023-07-22T05:06:50;11.40;99.90
37408;DHT22;24866;50.248;8.252;2023-07-22T05:09:21;11.50;99.90
37408;DHT22;24866;50.248;8.252;2023-07-22T05:11:51;11.40;99.90
37408;DHT22;24866;50.248;8.252;2023-07-22T05:14:21;11.50;99.90
37408;DHT22;24866;50.248;8.252;2023-07-22T05:16:51;11.50;99.90
37408;DHT22;24866;50.248;8.252;2023-07-22T05:19:20;11.70;99.90
37408;DHT22;24866;50.248;8.252;2023-07-22T05:21:50;11.80;99.90
37408;DHT22;24866;50.248;8.252;2023-07-22T05:24:21;11.80;99.90
37408;DHT22;24866;50.248;8.252;2023-07-22T05:26:51;11.90;99.90
37408;DHT22;24866;50.248;8.252;2023-07-22T05:29:22;11.90;99.90
37408;DHT22;24866;50.248;8.252;2023-07-22T05:31:52;12.00;99.90
37408;DHT22;24866;50.248;8.252;2023-07-22T05:34:22;12.10;99.90
37408;DHT22;24866;50.248;8.252;2023-07-22T05:36:51;12.10;99.90
37408;DHT22;24866;50.248;8.252;2023-07-22T05:39:23;12.10;99.90
37408;DHT22;24866;50.248;8.252;2023-07-22T05:41:53;12.00;99.90
37408;DHT22;24866;50.248;8.252;2023-07-22T05:44:23;12.10;99.90
37408;DHT22;24866;50.248;8.252;2023-07-22T05:46:53;12.20;99.90
37408;DHT22;24866;50.248;8.252;2023-07-22T05:49:23;12.40;99.90
37408;DHT22;24866;50.248;8.252;2023-07-22T05:51:53;12.50;99.90
37408;DHT22;24866;50.248;8.252;2023-07-22T05:54:25;12.60;99.90
37408;DHT22;24866;50.248;8.252;2023-07-22T05:56:55;12.60;99.90
37408;DHT22;24866;50.248;8.252;2023-07-22T05:59:24;12.70;99.90
37408;DHT22;24866;50.248;8.252;2023-07-22T06:01:54;12.90;99.90
37408;DHT22;24866;50.248;8.252;2023-07-22T06:04:24;13.00;99.90
37408;DHT22;24866;50.248;8.252;2023-07-22T06:06:54;13.10;99.90
37408;DHT22;24866;50.248;8.252;2023-07-22T06:09:25;13.10;99.90
37408;DHT22;24866;50.248;8.252;2023-07-22T06:11:55;13.30;99.90
37408;DHT22;24866;50.248;8.252;2023-07-22T06:14:25;13.40;99.90
37408;DHT22;24866;50.248;8.252;2023-07-22T06:16:55;13.60;99.90
37408;DHT22;24866;50.248;8.252;2023-07-22T06:19:25;13.70;99.90
37408;DHT22;24866;50.248;8.252;2023-07-22T06:21:55;13.80;99.90
37408;DHT22;24866;50.248;8.252;2023-07-22T06:24:26;14.00;99.90
37408;DHT22;24866;50.248;8.252;2023-07-22T06:26:56;14.00;99.90
37408;DHT22;24866;50.248;8.252;2023-07-22T06:29:25;14.20;99.90
37408;DHT22;24866;50.248;8.252;2023-07-22T06:31:55;14.30;99.90
37408;DHT22;24866;50.248;8.252;2023-07-22T06:34:25;14.40;99.90
37408;DHT22;24866;50.248;8.252;2023-07-22T06:36:55;14.50;99.90
37408;DHT22;24866;50.248;8.252;2023-07-22T06:39:26;14.70;99.90
37408;DHT22;24866;50.248;8.252;2023-07-22T06:41:56;14.80;99.90
37408;DHT22;24866;50.248;8.252;2023-07-22T06:44:26;14.90;99.90
37408;DHT22;24866;50.248;8.252;2023-07-22T06:46:56;15.10;99.90
37408;DHT22;24866;50.248;8.252;2023-07-22T06:49:26;15.10;99.90
37408;DHT22;24866;50.248;8.252;2023-07-22T06:51:56;15.30;99.90
37408;DHT22;24866;50.248;8.252;2023-07-22T06:54:27;15.30;99.90
37408;DHT22;24866;50.248;8.252;2023-07-22T06:56:57;15.70;99.90
37408;DHT22;24866;50.248;8.252;2023-07-22T06:59:27;15.70;99.90
37408;DHT22;24866;50.248;8.252;2023-07-22T07:01:57;15.70;99.90
37408;DHT22;24866;50.248;8.252;2023-07-22T07:04:27;15.70;99.90
37408;DHT22;24866;50.248;8.252;2023-07-22T07:06:59;15.80;99.90
37408;DHT22;24866;50.248;8.252;2023-07-22T07:09:30;15.80;99.90
37408;DHT22;24866;50.248;8.252;2023-07-22T07:12:00;15.90;99.90
37408;DHT22;24866;50.248;8.252;2023-07-22T07:14:29;16.00;99.90
37408;DHT22;24866;50.248;8.252;2023-07-22T07:16:59;16.10;99.90
37408;DHT22;24866;50.248;8.252;2023-07-22T07:19:29;16.40;99.90
37408;DHT22;24866;50.248;8.252;2023-07-22T07:21:59;16.60;99.90
37408;DHT22;24866;50.248;8.252;2023-07-22T07:24:30;16.80;99.90
37408;DHT22;24866;50.248;8.252;2023-07-22T07:27:00;16.80;99.90
37408;DHT22;24866;50.248;8.252;2023-07-22T07:29:30;16.80;99.90
37408;DHT22;24866;50.248;8.252;2023-07-22T07:32:00;16.90;99.90
37408;DHT22;24866;50.248;8.252;2023-07-22T07:34:30;16.90;99.90
37408;DHT22;24866;50.248;8.252;2023-07-22T07:37:00;17.00;99.90
37408;DHT22;24866;50.248;8.252;2023-07-22T07:39:32;17.00;99.90
37408;DHT22;24866;50.248;8.252;2023-07-22T07:42:02;17.10;99.90
37408;DHT22;24866;50.248;8.252;2023-07-22T07:44:32;17.30;99.90
37408;DHT22;24866;50.248;8.252;2023-07-22T07:47:02;17.40;99.90
37408;DHT22;24866;50.248;8.252;2023-07-22T07:49:31;17.40;99.90
37408;DHT22;24866;50.248;8.252;2023-07-22T07:52:01;17.50;99.90
37408;DHT22;24866;50.248;8.252;2023-07-22T07:54:33;17.60;99.90
37408;DHT22;24866;50.248;8.252;2023-07-22T07:57:03;17.60;99.90
37408;DHT22;24866;50.248;8.252;2023-07-22T07:59:34;17.70;99.90
37408;DHT22;24866;50.248;8.252;2023-07-22T08:02:05;18.00;99.90
37408;DHT22;24866;50.248;8.252;2023-07-22T08:04:37;18.00;99.90
37408;DHT22;24866;50.248;8.252;2023-07-22T08:07:07;18.00;99.90
37408;DHT22;24866;50.248;8.252;2023-07-22T08:09:38;18.20;99.90
37408;DHT22;24866;50.248;8.252;2023-07-22T08:12:08;18.50;99.90
37408;DHT22;24866;50.248;8.252;2023-07-22T08:14:38;18.50;99.90
37408;DHT22;24866;50.248;8.252;2023-07-22T08:17:08;18.60;99.90
37408;DHT22;24866;50.248;8.252;2023-07-22T08:19:38;18.50;99.90
37408;DHT22;24866;50.248;8.252;2023-07-22T08:22:08;18.40;99.90
37408;DHT22;24866;50.248;8.252;2023-07-22T08:24:39;18.50;99.90
37408;DHT22;24866;50.248;8.252;2023-07-22T08:27:10;18.70;99.90
37408;DHT22;24866;50.248;8.252;2023-07-22T08:29:40;18.70;99.90
37408;DHT22;24866;50.248;8.252;2023-07-22T08:32:10;18.90;99.90
37408;DHT22;24866;50.248;8.252;2023-07-22T08:34:40;19.20;99.90
37408;DHT22;24866;50.248;8.252;2023-07-22T08:37:10;19.30;99.90
37408;DHT22;24866;50.248;8.252;2023-07-22T08:39:41;19.30;99.90
37408;DHT22;24866;50.248;8.252;2023-07-22T08:42:11;19.30;99.90
37408;DHT22;24866;50.248;8.252;2023-07-22T08:44:44;19.20;99.90
37408;DHT22;24866;50.248;8.252;2023-07-22T08:47:18;19.30;99.90
37408;DHT22;24866;50.248;8.252;2023-07-22T08:49:52;19.60;99.90
37408;DHT22;24866;50.248;8.252;2023-07-22T08:52:22;19.60;99.90
37408;DHT22;24866;50.248;8.252;2023-07-22T08:54:55;19.70;99.90
37408;DHT22;24866;50.248;8.252;2023-07-22T08:57:25;19.80;99.90
37408;DHT22;24866;50.248;8.252;2023-07-22T08:59:57;19.50;99.90
37408;DHT22;24866;50.248;8.252;2023-07-22T09:02:27;19.30;99.90
37408;DHT22;24866;50.248;8.252;2023-07-22T09:04:57;19.10;99.90
37408;DHT22;24866;50.248;8.252;2023-07-22T09:07:27;19.10;99.90
37408;DHT22;24866;50.248;8.252;2023-07-22T09:09:59;19.20;99.90
37408;DHT22;24866;50.248;8.252;2023-07-22T09:12:31;19.20;99.90
37408;DHT22;24866;50.248;8.252;2023-07-22T09:15:10;19.20;99.90
37408;DHT22;24866;50.248;8.252;2023-07-22T09:17:41;19.20;99.90
37408;DHT22;24866;50.248;8.252;2023-07-22T09:20:12;19.20;99.90
37408;DHT22;24866;50.248;8.252;2023-07-22T09:22:43;19.20;99.90
37408;DHT22;24866;50.248;8.252;2023-07-22T09:25:16;19.10;99.90
37408;DHT22;24866;50.248;8.252;2023-07-22T09:27:48;19.20;99.90
37408;DHT22;24866;50.248;8.252;2023-07-22T09:30:23;19.20;99.90
37408;DHT22;24866;50.248;8.252;2023-07-22T09:32:54;19.20;99.90
37408;DHT22;24866;50.248;8.252;2023-07-22T09:35:25;19.20;99.90
37408;DHT22;24866;50.248;8.252;2023-07-22T09:37:56;19.50;99.90
37408;DHT22;24866;50.248;8.252;2023-07-22T09:40:27;19.90;99.90
37408;DHT22;24866;50.248;8.252;2023-07-22T09:43:01;20.10;99.90
37408;DHT22;24866;50.248;8.252;2023-07-22T09:45:31;20.00;99.90
37408;DHT22;24866;50.248;8.252;2023-07-22T09:48:01;19.90;99.90
37408;DHT22;24866;50.248;8.252;2023-07-22T09:50:31;19.80;99.90
37408;DHT22;24866;50.248;8.252;2023-07-22T09:53:01;19.80;99.90
37408;DHT22;24866;50.248;8.252;2023-07-22T09:55:33;19.80;99.90
37408;DHT22;24866;50.248;8.252;2023-07-22T09:58:04;19.90;99.90
37408;DHT22;24866;50.248;8.252;2023-07-22T10:00:35;19.80;99.90
37408;DHT22;24866;50.248;8.252;2023-07-22T10:03:09;19.50;99.90
37408;DHT22;24866;50.248;8.252;2023-07-22T10:05:40;19.30;99.90
37408;DHT22;24866;50.248;8.252;2023-07-22T10:08:10;19.20;99.90
37408;DHT22;24866;50.248;8.252;2023-07-22T10:10:43;19.20;99.90
37408;DHT22;24866;50.248;8.252;2023-07-22T10:13:14;19.20;99.90
37408;DHT22;24866;50.248;8.252;2023-07-22T10:15:45;19.10;99.90
37408;DHT22;24866;50.248;8.252;2023-07-22T10:18:16;19.20;99.90
37408;DHT22;24866;50.248;8.252;2023-07-22T10:20:46;19.30;99.90
37408;DHT22;24866;50.248;8.252;2023-07-22T10:23:18;19.30;99.90
37408;DHT22;24866;50.248;8.252;2023-07-22T10:25:49;19.30;99.90
37408;DHT22;24866;50.248;8.252;2023-07-22T10:28:31;19.30;99.90
37408;DHT22;24866;50.248;8.252;2023-07-22T10:31:02;19.30;99.90
37408;DHT22;24866;50.248;8.252;2023-07-22T10:33:32;19.40;99.90
37408;DHT22;24866;50.248;8.252;2023-07-22T10:36:04;19.40;99.90
37408;DHT22;24866;50.248;8.252;2023-07-22T10:38:34;19.50;99.90
37408;DHT22;24866;50.248;8.252;2023-07-22T10:41:13;19.70;99.90
37408;DHT22;24866;50.248;8.252;2023-07-22T10:43:54;19.80;99.90
37408;DHT22;24866;50.248;8.252;2023-07-22T10:46:34;19.80;99.90
37408;DHT22;24866;50.248;8.252;2023-07-22T10:49:10;19.80;99.90
37408;DHT22;24866;50.248;8.252;2023-07-22T10:51:41;20.00;99.90
37408;DHT22;24866;50.248;8.252;2023-07-22T10:54:12;20.10;99.90
37408;DHT22;24866;50.248;8.252;2023-07-22T10:56:44;20.30;99.90
37408;DHT22;24866;50.248;8.252;2023-07-22T10:59:14;20.30;99.90
37408;DHT22;24866;50.248;8.252;2023-07-22T11:01:44;20.30;99.90
37408;DHT22;24866;50.248;8.252;2023-07-22T11:04:22;20.30;99.90
37408;DHT22;24866;50.248;8.252;2023-07-22T11:07:00;20.20;99.90
37408;DHT22;24866;50.248;8.252;2023-07-22T11:09:40;20.20;99.90
37408;DHT22;24866;50.248;8.252;2023-07-22T11:12:14;20.70;99.90
37408;DHT22;24866;50.248;8.252;2023-07-22T11:14:47;21.10;99.90
37408;DHT22;24866;50.248;8.252;2023-07-22T11:17:18;21.40;99.90
37408;DHT22;24866;50.248;8.252;2023-07-22T11:19:48;21.50;99.90
37408;DHT22;24866;50.248;8.252;2023-07-22T11:22:18;21.40;99.90
37408;DHT22;24866;50.248;8.252;2023-07-22T11:24:48;21.20;99.90
37408;DHT22;24866;50.248;8.252;2023-07-22T11:27:19;21.00;99.90
37408;DHT22;24866;50.248;8.252;2023-07-22T11:29:49;21.00;99.90
37408;DHT22;24866;50.248;8.252;2023-07-22T11:32:20;21.10;99.90
37408;DHT22;24866;50.248;8.252;2023-07-22T11:34:51;21.00;99.90
37408;DHT22;24866;50.248;8.252;2023-07-22T11:37:21;20.90;99.90
37408;DHT22;24866;50.248;8.252;2023-07-22T11:39:51;20.90;99.90
37408;DHT22;24866;50.248;8.252;2023-07-22T11:42:22;21.00;99.90
37408;DHT22;24866;50.248;8.252;2023-07-22T11:44:52;21.30;99.90
37408;DHT22;24866;50.248;8.252;2023-07-22T11:47:28;21.30;99.90
37408;DHT22;24866;50.248;8.252;2023-07-22T11:49:58;21.20;99.90
37408;DHT22;24866;50.248;8.252;2023-07-22T11:52:28;21.30;99.90
37408;DHT22;24866;50.248;8.252;2023-07-22T11:55:02;21.10;99.90
37408;DHT22;24866;50.248;8.252;2023-07-22T11:57:33;21.20;1.00
37408;DHT22;24866;50.248;8.252;2023-07-22T12:00:07;21.30;1.00
37408;DHT22;24866;50.248;8.252;2023-07-22T12:02:37;21.50;99.90
37408;DHT22;24866;50.248;8.252;2023-07-22T12:05:08;21.40;1.00
37408;DHT22;24866;50.248;8.252;2023-07-22T12:07:38;21.50;1.00
37408;DHT22;24866;50.248;8.252;2023-07-22T12:10:09;21.40;99.90
37408;DHT22;24866;50.248;8.252;2023-07-22T12:12:43;21.30;1.00
37408;DHT22;24866;50.248;8.252;2023-07-22T12:15:15;21.30;1.00
37408;DHT22;24866;50.248;8.252;2023-07-22T12:17:46;21.40;1.00
37408;DHT22;24866;50.248;8.252;2023-07-22T12:20:17;21.80;1.00
37408;DHT22;24866;50.248;8.252;2023-07-22T12:22:47;22.10;1.00
37408;DHT22;24866;50.248;8.252;2023-07-22T12:25:17;22.40;1.00
37408;DHT22;24866;50.248;8.252;2023-07-22T12:27:49;22.10;99.90
37408;DHT22;24866;50.248;8.252;2023-07-22T12:30:19;21.70;87.10
37408;DHT22;24866;50.248;8.252;2023-07-22T12:32:49;21.60;1.00
37408;DHT22;24866;50.248;8.252;2023-07-22T12:35:19;21.70;1.00
37408;DHT22;24866;50.248;8.252;2023-07-22T12:37:49;21.70;1.00
37408;DHT22;24866;50.248;8.252;2023-07-22T12:40:20;21.80;1.00
37408;DHT22;24866;50.248;8.252;2023-07-22T12:42:51;22.10;1.00
37408;DHT22;24866;50.248;8.252;2023-07-22T12:45:21;21.90;99.90
37408;DHT22;24866;50.248;8.252;2023-07-22T12:47:51;22.00;99.90
37408;DHT22;24866;50.248;8.252;2023-07-22T12:50:21;21.90;99.90
37408;DHT22;24866;50.248;8.252;2023-07-22T12:52:51;21.70;51.00
37408;DHT22;24866;50.248;8.252;2023-07-22T12:55:20;21.90;82.40
37408;DHT22;24866;50.248;8.252;2023-07-22T12:57:53;22.00;1.00
37408;DHT22;24866;50.248;8.252;2023-07-22T13:00:23;22.10;1.00
37408;DHT22;24866;50.248;8.252;2023-07-22T13:02:53;22.20;1.00
37408;DHT22;24866;50.248;8.252;2023-07-22T13:05:25;22.10;1.00
37408;DHT22;24866;50.248;8.252;2023-07-22T13:07:55;22.00;1.00
37408;DHT22;24866;50.248;8.252;2023-07-22T13:10:25;22.10;1.00
37408;DHT22;24866;50.248;8.252;2023-07-22T13:12:56;21.80;99.90
37408;DHT22;24866;50.248;8.252;2023-07-22T13:15:26;21.80;99.90
37408;DHT22;24866;50.248;8.252;2023-07-22T13:17:55;21.80;99.90
37408;DHT22;24866;50.248;8.252;2023-07-22T13:20:25;22.00;99.90
37408;DHT22;24866;50.248;8.252;2023-07-22T13:22:55;22.20;99.90
37408;DHT22;24866;50.248;8.252;2023-07-22T13:25:26;22.40;99.90
37408;DHT22;24866;50.248;8.252;2023-07-22T13:27:57;22.50;99.90
37408;DHT22;24866;50.248;8.252;2023-07-22T13:30:27;22.60;99.90
37408;DHT22;24866;50.248;8.252;2023-07-22T13:32:57;22.60;99.90
37408;DHT22;24866;50.248;8.252;2023-07-22T13:35:28;22.40;1.00
37408;DHT22;24866;50.248;8.252;2023-07-22T13:37:58;22.60;1.00
37408;DHT22;24866;50.248;8.252;2023-07-22T13:40:28;23.00;1.00
37408;DHT22;24866;50.248;8.252;2023-07-22T13:43:00;23.10;1.00
37408;DHT22;24866;50.248;8.252;2023-07-22T13:45:30;23.20;1.00
37408;DHT22;24866;50.248;8.252;2023-07-22T13:48:00;22.90;1.00
37408;DHT22;24866;50.248;8.252;2023-07-22T13:50:30;22.70;1.00
37408;DHT22;24866;50.248;8.252;2023-07-22T13:53:01;22.80;1.00
37408;DHT22;24866;50.248;8.252;2023-07-22T13:55:30;22.90;1.00
37408;DHT22;24866;50.248;8.252;2023-07-22T13:58:02;23.50;1.00
37408;DHT22;24866;50.248;8.252;2023-07-22T14:00:31;23.40;1.00
37408;DHT22;24866;50.248;8.252;2023-07-22T14:03:01;23.70;1.00
37408;DHT22;24866;50.248;8.252;2023-07-22T14:05:32;23.50;99.90
37408;DHT22;24866;50.248;8.252;2023-07-22T14:08:01;23.70;99.90
37408;DHT22;24866;50.248;8.252;2023-07-22T14:10:31;23.30;99.90
37408;DHT22;24866;50.248;8.252;2023-07-22T14:13:02;23.70;99.90
37408;DHT22;24866;50.248;8.252;2023-07-22T14:15:32;23.90;99.90
37408;DHT22;24866;50.248;8.252;2023-07-22T14:18:02;23.80;99.90
37408;DHT22;24866;50.248;8.252;2023-07-22T14:20:32;23.40;99.90
37408;DHT22;24866;50.248;8.252;2023-07-22T14:23:02;23.00;45.30
37408;DHT22;24866;50.248;8.252;2023-07-22T14:25:33;23.00;1.00
37408;DHT22;24866;50.248;8.252;2023-07-22T14:28:04;23.20;25.50
37408;DHT22;24866;50.248;8.252;2023-07-22T14:30:34;23.60;17.20
37408;DHT22;24866;50.248;8.252;2023-07-22T14:33:04;23.90;11.00
37408;DHT22;24866;50.248;8.252;2023-07-22T14:35:34;23.90;1.00
37408;DHT22;24866;50.248;8.252;2023-07-22T14:38:04;23.70;1.00
37408;DHT22;24866;50.248;8.252;2023-07-22T14:40:34;23.20;1.00
37408;DHT22;24866;50.248;8.252;2023-07-22T14:43:06;23.00;1.00
37408;DHT22;24866;50.248;8.252;2023-07-22T14:45:36;23.10;1.00
37408;DHT22;24866;50.248;8.252;2023-07-22T14:48:06;23.10;1.00
37408;DHT22;24866;50.248;8.252;2023-07-22T14:50:35;23.50;1.00
37408;DHT22;24866;50.248;8.252;2023-07-22T14:53:05;23.50;1.00
37408;DHT22;24866;50.248;8.252;2023-07-22T14:55:35;23.30;1.00
37408;DHT22;24866;50.248;8.252;2023-07-22T14:58:07;23.40;1.00
37408;DHT22;24866;50.248;8.252;2023-07-22T15:00:36;23.70;1.00
37408;DHT22;24866;50.248;8.252;2023-07-22T15:03:06;24.10;1.00
37408;DHT22;24866;50.248;8.252;2023-07-22T15:05:36;24.10;1.00
37408;DHT22;24866;50.248;8.252;2023-07-22T15:08:06;24.30;1.00
37408;DHT22;24866;50.248;8.252;2023-07-22T15:10:36;24.10;1.00
37408;DHT22;24866;50.248;8.252;2023-07-22T15:13:07;23.80;1.00
37408;DHT22;24866;50.248;8.252;2023-07-22T15:15:37;23.90;99.90
37408;DHT22;24866;50.248;8.252;2023-07-22T15:18:07;23.80;99.90
37408;DHT22;24866;50.248;8.252;2023-07-22T15:20:37;23.60;99.90
37408;DHT22;24866;50.248;8.252;2023-07-22T15:23:07;23.70;99.90
37408;DHT22;24866;50.248;8.252;2023-07-22T15:25:37;23.90;99.90
37408;DHT22;24866;50.248;8.252;2023-07-22T15:28:08;23.90;99.90
37408;DHT22;24866;50.248;8.252;2023-07-22T15:30:38;23.90;99.90
37408;DHT22;24866;50.248;8.252;2023-07-22T15:33:07;24.10;99.90
37408;DHT22;24866;50.248;8.252;2023-07-22T15:35:37;24.10;99.90
37408;DHT22;24866;50.248;8.252;2023-07-22T15:38:07;24.00;99.90
37408;DHT22;24866;50.248;8.252;2023-07-22T15:40:38;23.80;99.90
37408;DHT22;24866;50.248;8.252;2023-07-22T15:43:09;23.90;99.90
37408;DHT22;24866;50.248;8.252;2023-07-22T15:45:39;23.60;99.90
37408;DHT22;24866;50.248;8.252;2023-07-22T15:48:09;23.40;84.90
37408;DHT22;24866;50.248;8.252;2023-07-22T15:50:38;23.40;49.70
37408;DHT22;24866;50.248;8.252;2023-07-22T15:53:08;23.40;52.60